Blue Star 1 — SWET — position and weather

sailwx.info

Track history (hours):
 
Tides and Currents Weather Stations Pressure Air Temp Water Temp Dewpoint Dewpoint Depression Visibility Wind Speed Wind Dir Waves Ship Positions

Blue Star 1

Last reported at 2014-Jul-23 19:33 UTC. Time now 2014-Jul-23 19:46 UTC.
Position N 36°42' E 026°10'.

Length 176 m; draft 6.5 m.

Type: Passenger vessel. MMSI: 239710000.

Date/timePositionNaut miles runAvg speedWind from/ knotsBaromVisibWave heightAir tempDewpointWater temp
2014-Jul-23 19:33N 36°42' E 026°10'68 4.7
2014-Jul-23 05:06N 36°36' E 027°35'4913.2
2014-Jul-23 01:25N 36°47' E 026°36'2124.6
2014-Jul-23 00:33N 36°42' E 026°11'2524.6
2014-Jul-22 23:34N 36°35' E 025°41'1716.9
2014-Jul-22 22:33N 36°23' E 025°26'2 1.7
2014-Jul-22 21:34N 36°23' E 025°24'2120.9
2014-Jul-22 20:33N 36°32' E 024°60'2120.7
2014-Jul-22 19:33N 36°47' E 024°42'2121.3
2014-Jul-22 18:33N 37°03' E 024°24'2121.2
2014-Jul-22 17:32N 37°18' E 024°05'2521.1
2014-Jul-22 16:20N 37°37' E 023°44'1620.8
2014-Jul-22 15:34N 37°52' E 023°37'4 4.0
2014-Jul-22 14:33N 37°56' E 023°38'0 0.0
2014-Jul-22 13:33N 37°56' E 023°38'0 0.0
2014-Jul-22 12:33N 37°56' E 023°38'0 0.0
2014-Jul-22 11:33N 37°56' E 023°38'0 0.0
2014-Jul-22 10:33N 37°56' E 023°38'0 0.0
2014-Jul-22 09:32N 37°56' E 023°38'0 0.0
2014-Jul-22 08:32N 37°56' E 023°38'0 0.0
2014-Jul-22 07:32N 37°56' E 023°38'0 0.0
2014-Jul-22 06:32N 37°56' E 023°38'0 0.0
2014-Jul-22 05:29N 37°56' E 023°38'1 1.2
2014-Jul-22 04:33N 37°55' E 023°37'2120.7
2014-Jul-22 03:33N 37°37' E 023°50'2221.6
2014-Jul-22 02:33N 37°20' E 024°07'2221.6
2014-Jul-22 01:31N 37°03' E 024°25'2121.9
2014-Jul-22 00:33N 36°47' E 024°41'2121.4
2014-Jul-21 23:33N 36°32' E 025°00'2121.0
2014-Jul-21 22:33N 36°23' E 025°24'4 3.6
2014-Jul-21 21:34N 36°27' E 025°22'1919.0
2014-Jul-21 20:34N 36°36' E 025°43'621.9
2014-Jul-21 20:18N 36°37' E 025°50'1621.9
2014-Jul-21 19:34N 36°42' E 026°10'2221.6
2014-Jul-21 18:33N 36°48' E 026°36'3 0.2
2014-Jul-21 01:03N 36°46' E 026°32'1122.1
2014-Jul-21 00:33N 36°43' E 026°19'2221.8
2014-Jul-20 23:33N 36°37' E 025°53'2221.8
2014-Jul-20 22:34N 36°31' E 025°27'8 8.0
2014-Jul-20 21:33N 36°23' E 025°26'1414.2
2014-Jul-20 20:33N 36°27' E 025°09'2121.4
2014-Jul-20 19:33N 36°40' E 024°48'2121.4
2014-Jul-20 18:33N 36°57' E 024°30'6621.8
2014-Jul-20 15:32N 37°48' E 023°38'5 0.9
2014-Jul-20 10:33N 37°52' E 023°38'4621.5
2014-Jul-20 08:26N 37°15' E 024°12'1921.3
2014-Jul-20 07:32N 37°01' E 024°27'2121.6
2014-Jul-20 06:33N 36°45' E 024°44'2020.3
2014-Jul-20 05:33N 36°31' E 025°03'1818.1
2014-Jul-20 04:33N 36°23' E 025°23'4 4.1
2014-Jul-20 03:34N 36°27' E 025°22'1716.8
2014-Jul-20 02:33N 36°34' E 025°41'1919.0
2014-Jul-20 01:33N 36°40' E 026°04'1919.1
2014-Jul-20 00:33N 36°45' E 026°26'0 0.1
2014-Jul-19 18:32N 36°45' E 026°26'2121.7
2014-Jul-19 17:33N 36°39' E 026°00'2222.0
2014-Jul-19 16:33N 36°33' E 025°34'1211.8
2014-Jul-19 15:33N 36°23' E 025°26'8 7.7
2014-Jul-19 14:33N 36°24' E 025°16'2019.8
2014-Jul-19 13:33N 36°35' E 024°56'2019.6
2014-Jul-19 12:33N 36°49' E 024°39'2519.6
2014-Jul-19 11:18N 37°07' E 024°17'3419.7
2014-Jul-19 09:33N 37°33' E 023°49'1919.5
2014-Jul-19 08:33N 37°50' E 023°37'7 6.7
2014-Jul-19 07:33N 37°56' E 023°38'0 0.0
2014-Jul-19 06:33N 37°56' E 023°38'0 0.0
2014-Jul-19 05:33N 37°56' E 023°38'2 1.6
2014-Jul-19 04:33N 37°55' E 023°37'2121.1
2014-Jul-19 03:33N 37°36' E 023°50'2521.4
2014-Jul-19 02:24N 37°18' E 024°10'1921.6
2014-Jul-19 01:31N 37°03' E 024°25'2121.8
2014-Jul-19 00:33N 36°47' E 024°42'2121.5
2014-Jul-18 23:33N 36°32' E 025°01'2120.6
2014-Jul-18 22:33N 36°23' E 025°24'5 4.9
2014-Jul-18 21:34N 36°28' E 025°22'2020.2
2014-Jul-18 20:34N 36°36' E 025°44'2221.9
2014-Jul-18 19:33N 36°42' E 026°11'2221.6
2014-Jul-18 18:34N 36°48' E 026°37'4011.8
2014-Jul-18 15:11N 36°39' E 027°25'26 2.0
2014-Jul-18 02:21N 36°52' E 026°58'2022.0
2014-Jul-18 01:27N 36°47' E 026°34'1921.5
2014-Jul-18 00:33N 36°42' E 026°11'2222.0
2014-Jul-17 23:33N 36°35' E 025°45'2020.1
2014-Jul-17 22:33N 36°27' E 025°22'5 4.3
2014-Jul-17 21:25N 36°23' E 025°26'2119.6
2014-Jul-17 20:20N 36°31' E 025°01'1821.0
2014-Jul-17 19:29N 36°44' E 024°45'8421.4
2014-Jul-17 15:32N 37°49' E 023°37'8 7.8
2014-Jul-17 14:31N 37°56' E 023°38'0 0.0
2014-Jul-17 13:31N 37°56' E 023°38'0 0.0
2014-Jul-17 12:31N 37°56' E 023°38'0 0.0
2014-Jul-17 11:31N 37°56' E 023°38'0 0.0
2014-Jul-17 10:31N 37°56' E 023°38'0 0.0
2014-Jul-17 09:31N 37°56' E 023°38'0 0.0
2014-Jul-17 08:31N 37°56' E 023°38'0 0.0
2014-Jul-17 07:31N 37°56' E 023°38'0 0.0
2014-Jul-17 06:31N 37°56' E 023°38'0 0.0
2014-Jul-17 05:31N 37°56' E 023°38'2 1.7
2014-Jul-17 04:34N 37°55' E 023°37'4221.0
2014-Jul-17 02:33N 37°20' E 024°07'2321.7
2014-Jul-17 01:29N 37°02' E 024°26'2021.8
2014-Jul-17 00:33N 36°47' E 024°42'2121.4
2014-Jul-16 23:34N 36°31' E 025°00'2120.9
2014-Jul-16 22:33N 36°23' E 025°24'3 2.6
2014-Jul-16 21:33N 36°26' E 025°23'1818.2
2014-Jul-16 20:33N 36°35' E 025°43'2222.1
2014-Jul-16 19:33N 36°42' E 026°09'3 0.2
2014-Jul-16 00:33N 36°42' E 026°13'2524.6
2014-Jul-15 23:34N 36°36' E 025°44'1918.6
2014-Jul-15 22:33N 36°25' E 025°25'2 1.7
2014-Jul-15 21:32N 36°23' E 025°26'1919.2
2014-Jul-15 20:34N 36°30' E 025°04'2120.9
2014-Jul-15 19:33N 36°44' E 024°45'2221.2
2014-Jul-15 18:30N 37°00' E 024°26'5021.3
2014-Jul-15 16:09N 37°38' E 023°44'1321.4
2014-Jul-15 15:34N 37°49' E 023°37'7 7.0
2014-Jul-15 14:31N 37°56' E 023°38'0 0.0
2014-Jul-15 13:31N 37°56' E 023°38'0 0.0
2014-Jul-15 12:31N 37°56' E 023°38'0 0.0
2014-Jul-15 11:31N 37°56' E 023°38'0 0.0
2014-Jul-15 10:31N 37°56' E 023°38'0 0.0
2014-Jul-15 09:33N 37°56' E 023°38'0 0.0
2014-Jul-15 08:33N 37°56' E 023°38'0 0.0
2014-Jul-15 07:33N 37°56' E 023°38'0 0.0
2014-Jul-15 06:33N 37°56' E 023°38'0 0.0
2014-Jul-15 05:33N 37°56' E 023°38'1 1.2
2014-Jul-15 04:34N 37°55' E 023°37'6420.9
2014-Jul-15 01:31N 37°04' E 024°24'2122.1
2014-Jul-15 00:34N 36°48' E 024°41'2221.7
2014-Jul-14 23:34N 36°32' E 024°60'2121.4
2014-Jul-14 22:33N 36°23' E 025°24'4 4.5
2014-Jul-14 21:33N 36°27' E 025°22'2020.0
2014-Jul-14 20:33N 36°36' E 025°44'2221.6
2014-Jul-14 19:33N 36°42' E 026°10'2221.6
2014-Jul-14 18:33N 36°48' E 026°36'2121.3
2014-Jul-14 17:33N 36°53' E 027°02'4 0.2
2014-Jul-14 02:18N 36°54' E 027°06'4322.4
2014-Jul-14 00:24N 36°43' E 026°15'1922.3
2014-Jul-13 23:34N 36°37' E 025°53'2222.4
2014-Jul-13 22:33N 36°31' E 025°26'8 6.3
2014-Jul-13 21:20N 36°23' E 025°26'1417.8
2014-Jul-13 20:32N 36°27' E 025°09'  
Track history (hours):
 
Tides and Currents Weather Stations Pressure Air Temp Water Temp Dewpoint Dewpoint Depression Visibility Wind Speed Wind Dir Waves Ship Positions

Blue Star 1

Last reported at 2014-Jul-23 19:33 UTC. Time now 2014-Jul-23 19:46 UTC.
Position N 36°42' E 026°10'.

Length 176 m; draft 6.5 m.

Type: Passenger vessel. MMSI: 239710000.

Date/timePositionNaut miles runAvg speedWind from/ knotsBaromVisibWave heightAir tempDewpointWater temp
2014-Jul-23 19:33N 36°42' E 026°10'68 4.7
2014-Jul-23 05:06N 36°36' E 027°35'4913.2
2014-Jul-23 01:25N 36°47' E 026°36'2124.6
2014-Jul-23 00:33N 36°42' E 026°11'2524.6
2014-Jul-22 23:34N 36°35' E 025°41'1716.9
2014-Jul-22 22:33N 36°23' E 025°26'2 1.7
2014-Jul-22 21:34N 36°23' E 025°24'2120.9
2014-Jul-22 20:33N 36°32' E 024°60'2120.7
2014-Jul-22 19:33N 36°47' E 024°42'2121.3
2014-Jul-22 18:33N 37°03' E 024°24'2121.2
2014-Jul-22 17:32N 37°18' E 024°05'2521.1
2014-Jul-22 16:20N 37°37' E 023°44'1620.8
2014-Jul-22 15:34N 37°52' E 023°37'4 4.0
2014-Jul-22 14:33N 37°56' E 023°38'0 0.0
2014-Jul-22 13:33N 37°56' E 023°38'0 0.0
2014-Jul-22 12:33N 37°56' E 023°38'0 0.0
2014-Jul-22 11:33N 37°56' E 023°38'0 0.0
2014-Jul-22 10:33N 37°56' E 023°38'0 0.0
2014-Jul-22 09:32N 37°56' E 023°38'0 0.0
2014-Jul-22 08:32N 37°56' E 023°38'0 0.0
2014-Jul-22 07:32N 37°56' E 023°38'0 0.0
2014-Jul-22 06:32N 37°56' E 023°38'0 0.0
2014-Jul-22 05:29N 37°56' E 023°38'1 1.2
2014-Jul-22 04:33N 37°55' E 023°37'2120.7
2014-Jul-22 03:33N 37°37' E 023°50'2221.6
2014-Jul-22 02:33N 37°20' E 024°07'2221.6
2014-Jul-22 01:31N 37°03' E 024°25'2121.9
2014-Jul-22 00:33N 36°47' E 024°41'2121.4
2014-Jul-21 23:33N 36°32' E 025°00'2121.0
2014-Jul-21 22:33N 36°23' E 025°24'4 3.6
2014-Jul-21 21:34N 36°27' E 025°22'1919.0
2014-Jul-21 20:34N 36°36' E 025°43'621.9
2014-Jul-21 20:18N 36°37' E 025°50'1621.9
2014-Jul-21 19:34N 36°42' E 026°10'2221.6
2014-Jul-21 18:33N 36°48' E 026°36'3 0.2
2014-Jul-21 01:03N 36°46' E 026°32'1122.1
2014-Jul-21 00:33N 36°43' E 026°19'2221.8
2014-Jul-20 23:33N 36°37' E 025°53'2221.8
2014-Jul-20 22:34N 36°31' E 025°27'8 8.0
2014-Jul-20 21:33N 36°23' E 025°26'1414.2
2014-Jul-20 20:33N 36°27' E 025°09'2121.4
2014-Jul-20 19:33N 36°40' E 024°48'2121.4
2014-Jul-20 18:33N 36°57' E 024°30'6621.8
2014-Jul-20 15:32N 37°48' E 023°38'5 0.9
2014-Jul-20 10:33N 37°52' E 023°38'4621.5
2014-Jul-20 08:26N 37°15' E 024°12'1921.3
2014-Jul-20 07:32N 37°01' E 024°27'2121.6
2014-Jul-20 06:33N 36°45' E 024°44'2020.3
2014-Jul-20 05:33N 36°31' E 025°03'1818.1
2014-Jul-20 04:33N 36°23' E 025°23'4 4.1
2014-Jul-20 03:34N 36°27' E 025°22'1716.8
2014-Jul-20 02:33N 36°34' E 025°41'1919.0
2014-Jul-20 01:33N 36°40' E 026°04'1919.1
2014-Jul-20 00:33N 36°45' E 026°26'0 0.1
2014-Jul-19 18:32N 36°45' E 026°26'2121.7
2014-Jul-19 17:33N 36°39' E 026°00'2222.0
2014-Jul-19 16:33N 36°33' E 025°34'1211.8
2014-Jul-19 15:33N 36°23' E 025°26'8 7.7
2014-Jul-19 14:33N 36°24' E 025°16'2019.8
2014-Jul-19 13:33N 36°35' E 024°56'2019.6
2014-Jul-19 12:33N 36°49' E 024°39'2519.6
2014-Jul-19 11:18N 37°07' E 024°17'3419.7
2014-Jul-19 09:33N 37°33' E 023°49'1919.5
2014-Jul-19 08:33N 37°50' E 023°37'7 6.7
2014-Jul-19 07:33N 37°56' E 023°38'0 0.0
2014-Jul-19 06:33N 37°56' E 023°38'0 0.0
2014-Jul-19 05:33N 37°56' E 023°38'2 1.6
2014-Jul-19 04:33N 37°55' E 023°37'2121.1
2014-Jul-19 03:33N 37°36' E 023°50'2521.4
2014-Jul-19 02:24N 37°18' E 024°10'1921.6
2014-Jul-19 01:31N 37°03' E 024°25'2121.8
2014-Jul-19 00:33N 36°47' E 024°42'2121.5
2014-Jul-18 23:33N 36°32' E 025°01'2120.6
2014-Jul-18 22:33N 36°23' E 025°24'5 4.9
2014-Jul-18 21:34N 36°28' E 025°22'2020.2
2014-Jul-18 20:34N 36°36' E 025°44'2221.9
2014-Jul-18 19:33N 36°42' E 026°11'2221.6
2014-Jul-18 18:34N 36°48' E 026°37'4011.8
2014-Jul-18 15:11N 36°39' E 027°25'26 2.0
2014-Jul-18 02:21N 36°52' E 026°58'2022.0
2014-Jul-18 01:27N 36°47' E 026°34'1921.5
2014-Jul-18 00:33N 36°42' E 026°11'2222.0
2014-Jul-17 23:33N 36°35' E 025°45'2020.1
2014-Jul-17 22:33N 36°27' E 025°22'5 4.3
2014-Jul-17 21:25N 36°23' E 025°26'2119.6
2014-Jul-17 20:20N 36°31' E 025°01'1821.0
2014-Jul-17 19:29N 36°44' E 024°45'8421.4
2014-Jul-17 15:32N 37°49' E 023°37'8 7.8
2014-Jul-17 14:31N 37°56' E 023°38'0 0.0
2014-Jul-17 13:31N 37°56' E 023°38'0 0.0
2014-Jul-17 12:31N 37°56' E 023°38'0 0.0
2014-Jul-17 11:31N 37°56' E 023°38'0 0.0
2014-Jul-17 10:31N 37°56' E 023°38'0 0.0
2014-Jul-17 09:31N 37°56' E 023°38'0 0.0
2014-Jul-17 08:31N 37°56' E 023°38'0 0.0
2014-Jul-17 07:31N 37°56' E 023°38'0 0.0
2014-Jul-17 06:31N 37°56' E 023°38'0 0.0
2014-Jul-17 05:31N 37°56' E 023°38'2 1.7
2014-Jul-17 04:34N 37°55' E 023°37'4221.0
2014-Jul-17 02:33N 37°20' E 024°07'2321.7
2014-Jul-17 01:29N 37°02' E 024°26'2021.8
2014-Jul-17 00:33N 36°47' E 024°42'2121.4
2014-Jul-16 23:34N 36°31' E 025°00'2120.9
2014-Jul-16 22:33N 36°23' E 025°24'3 2.6
2014-Jul-16 21:33N 36°26' E 025°23'1818.2
2014-Jul-16 20:33N 36°35' E 025°43'2222.1
2014-Jul-16 19:33N 36°42' E 026°09'3 0.2
2014-Jul-16 00:33N 36°42' E 026°13'2524.6
2014-Jul-15 23:34N 36°36' E 025°44'1918.6
2014-Jul-15 22:33N 36°25' E 025°25'2 1.7
2014-Jul-15 21:32N 36°23' E 025°26'1919.2
2014-Jul-15 20:34N 36°30' E 025°04'2120.9
2014-Jul-15 19:33N 36°44' E 024°45'2221.2
2014-Jul-15 18:30N 37°00' E 024°26'5021.3
2014-Jul-15 16:09N 37°38' E 023°44'1321.4
2014-Jul-15 15:34N 37°49' E 023°37'7 7.0
2014-Jul-15 14:31N 37°56' E 023°38'0 0.0
2014-Jul-15 13:31N 37°56' E 023°38'0 0.0
2014-Jul-15 12:31N 37°56' E 023°38'0 0.0
2014-Jul-15 11:31N 37°56' E 023°38'0 0.0
2014-Jul-15 10:31N 37°56' E 023°38'0 0.0
2014-Jul-15 09:33N 37°56' E 023°38'0 0.0
2014-Jul-15 08:33N 37°56' E 023°38'0 0.0
2014-Jul-15 07:33N 37°56' E 023°38'0 0.0
2014-Jul-15 06:33N 37°56' E 023°38'0 0.0
2014-Jul-15 05:33N 37°56' E 023°38'1 1.2
2014-Jul-15 04:34N 37°55' E 023°37'6420.9
2014-Jul-15 01:31N 37°04' E 024°24'2122.1
2014-Jul-15 00:34N 36°48' E 024°41'2221.7
2014-Jul-14 23:34N 36°32' E 024°60'2121.4
2014-Jul-14 22:33N 36°23' E 025°24'4 4.5
2014-Jul-14 21:33N 36°27' E 025°22'2020.0
2014-Jul-14 20:33N 36°36' E 025°44'2221.6
2014-Jul-14 19:33N 36°42' E 026°10'2221.6
2014-Jul-14 18:33N 36°48' E 026°36'2121.3
2014-Jul-14 17:33N 36°53' E 027°02'4 0.2
2014-Jul-14 02:18N 36°54' E 027°06'4322.4
2014-Jul-14 00:24N 36°43' E 026°15'1922.3
2014-Jul-13 23:34N 36°37' E 025°53'2222.4
2014-Jul-13 22:33N 36°31' E 025°26'8 6.3
2014-Jul-13 21:20N 36°23' E 025°26'1417.8
2014-Jul-13 20:32N 36°27' E 025°09'  

Dump ship's entire track history